createdAt,value
2022-08-21T00:03:12.595Z,100581.44
2022-08-21T00:07:14.704Z,100578.00
2022-08-21T00:11:16.294Z,100586.72
2022-08-21T00:15:23.137Z,100589.34
2022-08-21T00:19:25.798Z,100585.88
2022-08-21T00:23:27.416Z,100578.09
2022-08-21T00:27:29.115Z,100572.88
2022-08-21T00:31:30.890Z,100563.38
2022-08-21T00:35:36.200Z,100566.84
2022-08-21T00:39:37.846Z,100568.59
2022-08-21T00:43:40.323Z,100569.50
2022-08-21T00:47:42.196Z,100567.75
2022-08-21T00:51:54.511Z,100572.16
2022-08-21T00:55:57.017Z,100568.72
2022-08-21T01:00:02.238Z,100574.81
2022-08-21T01:04:03.870Z,100574.84
2022-08-21T01:08:07.111Z,100571.38
2022-08-21T01:12:09.617Z,100576.63
2022-08-21T01:16:11.422Z,100570.56
2022-08-21T01:20:13.569Z,100571.44
2022-08-21T01:24:15.720Z,100574.06
2022-08-21T01:28:17.414Z,100576.69
2022-08-21T01:32:21.247Z,100572.34
2022-08-21T01:36:24.489Z,100577.56
2022-08-21T01:40:26.314Z,100562.78
2022-08-21T01:44:28.497Z,100566.25
2022-08-21T01:48:30.048Z,100559.34
2022-08-21T01:52:31.705Z,100566.31
2022-08-21T01:56:39.251Z,100568.94
2022-08-21T02:00:40.908Z,100565.47
2022-08-21T02:04:42.517Z,100564.59
2022-08-21T02:08:47.585Z,100561.13
2022-08-21T02:12:50.128Z,100552.47
2022-08-21T02:16:51.911Z,100552.50
2022-08-21T02:21:07.452Z,100537.75
2022-08-21T02:25:09.210Z,100553.34
2022-08-21T02:29:10.750Z,100553.34
2022-08-21T02:33:13.844Z,100554.22
2022-08-21T02:37:15.496Z,100549.00
2022-08-21T02:41:21.669Z,100553.34
2022-08-21T02:45:23.285Z,100555.06
2022-08-21T02:49:24.937Z,100554.22
2022-08-21T02:53:27.322Z,100548.13
2022-08-21T02:57:28.911Z,100547.28
2022-08-21T03:01:30.493Z,100555.94
2022-08-21T03:05:33.301Z,100547.25
2022-08-21T03:09:34.906Z,100550.69
2022-08-21T03:13:36.590Z,100548.06
2022-08-21T03:17:38.585Z,100558.47
2022-08-21T03:21:40.163Z,100553.22
2022-08-21T03:25:42.488Z,100549.72
2022-08-21T03:29:44.066Z,100555.78
2022-08-21T03:33:45.924Z,100555.78
2022-08-21T03:37:47.976Z,100558.34
2022-08-21T03:41:49.552Z,100566.13
2022-08-21T03:45:51.518Z,100556.59
2022-08-21T03:49:55.062Z,100554.91
2022-08-21T03:53:56.617Z,100560.94
2022-08-21T03:57:58.282Z,100566.97
2022-08-21T04:02:02.352Z,100567.81
2022-08-21T04:06:04.964Z,100574.75
2022-08-21T04:10:08.191Z,100575.59
2022-08-21T04:14:10.503Z,100581.59
2022-08-21T04:18:12.139Z,100589.31
2022-08-21T04:22:13.746Z,100588.44
2022-08-21T04:26:15.328Z,100589.28
2022-08-21T04:30:17.846Z,100589.22
2022-08-21T04:34:19.813Z,100598.69
2022-08-21T04:38:21.676Z,100614.28
2022-08-21T04:42:23.338Z,100615.16
2022-08-21T04:46:25.004Z,100628.13
2022-08-21T04:50:32.527Z,100613.44
2022-08-21T04:54:40.277Z,100616.09
2022-08-21T04:58:42.726Z,100623.00
2022-08-21T05:02:44.485Z,100613.47
2022-08-21T05:06:48.496Z,100622.16
2022-08-21T05:10:50.625Z,100614.38
2022-08-21T05:14:52.243Z,100622.16
2022-08-21T05:18:54.017Z,100613.53
2022-08-21T05:22:56.239Z,100618.75
2022-08-21T05:26:58.363Z,100629.16
2022-08-21T05:31:00.011Z,100628.34
2022-08-21T05:35:01.645Z,100628.41
2022-08-21T05:39:03.764Z,100633.63
2022-08-21T05:43:05.347Z,100627.56
2022-08-21T05:47:09.354Z,100632.75
2022-08-21T05:51:13.557Z,100629.31
2022-08-21T05:55:15.142Z,100640.56
2022-08-21T05:59:19.307Z,100636.25
2022-08-21T06:03:24.162Z,100632.81
2022-08-21T06:07:25.797Z,100632.84
2022-08-21T06:11:29.065Z,100638.94
2022-08-21T06:15:31.153Z,100638.97
2022-08-21T06:19:32.766Z,100645.88
2022-08-21T06:23:35.600Z,100641.53
2022-08-21T06:27:37.380Z,100645.91
2022-08-21T06:31:40.243Z,100645.06
2022-08-21T06:35:42.684Z,100648.56
2022-08-21T06:39:45.456Z,100646.00
2022-08-21T06:43:47.393Z,100646.88
2022-08-21T06:47:49.179Z,100644.31
2022-08-21T06:51:51.360Z,100646.03
2022-08-21T06:55:53.322Z,100653.88
2022-08-21T06:59:55.002Z,100640.00
2022-08-21T07:03:56.642Z,100648.69
2022-08-21T07:07:59.126Z,100639.19
2022-08-21T07:12:01.217Z,100637.44
2022-08-21T07:16:04.226Z,100635.72
2022-08-21T07:20:07.498Z,100623.56
2022-08-21T07:24:09.217Z,100623.56
2022-08-21T07:28:11.452Z,100614.03
2022-08-21T07:32:13.386Z,100615.72
2022-08-21T07:36:15.373Z,100617.44
2022-08-21T07:40:18.288Z,100618.31
2022-08-21T07:44:20.131Z,100615.66
2022-08-21T07:48:22.998Z,100617.38
2022-08-21T07:52:24.623Z,100618.22
2022-08-21T07:56:33.306Z,100617.28
2022-08-21T08:00:35.621Z,100614.66
2022-08-21T08:04:37.180Z,100611.97
2022-08-21T08:08:52.116Z,100617.19
2022-08-21T08:12:55.687Z,100611.94
2022-08-21T08:16:57.521Z,100609.31
2022-08-21T08:20:59.111Z,100604.06
2022-08-21T08:25:01.232Z,100603.94
2022-08-21T08:29:02.833Z,100603.03
2022-08-21T08:33:04.436Z,100603.88
2022-08-21T08:37:07.598Z,100589.06
2022-08-21T08:41:14.067Z,100578.47
2022-08-21T08:45:20.523Z,100578.38
2022-08-21T08:49:56.049Z,100565.25
2022-08-21T08:54:05.369Z,100559.13
2022-08-21T08:58:07.873Z,100562.50
2022-08-21T09:02:12.591Z,100559.72
2022-08-21T09:06:29.565Z,100546.50
2022-08-21T09:10:43.120Z,100550.81
2022-08-21T09:14:56.954Z,100546.34
2022-08-21T09:19:26.187Z,100546.97
2022-08-21T09:23:55.249Z,100533.66
2022-08-21T09:27:56.789Z,100527.44
2022-08-21T09:31:58.348Z,100526.47
2022-08-21T09:36:00.165Z,100521.97
2022-08-21T09:40:18.713Z,100517.50
2022-08-21T09:44:28.198Z,100521.53
2022-08-21T09:48:32.542Z,100521.19
2022-08-21T09:52:35.245Z,100517.41
2022-08-21T09:57:38.482Z,100522.38
2022-08-21T10:01:51.164Z,100518.56
2022-08-21T10:05:54.609Z,100520.09
2022-08-21T10:10:08.597Z,100513.75
2022-08-21T10:14:21.644Z,100511.03
2022-08-21T10:18:35.574Z,100508.16
2022-08-21T10:22:54.320Z,100493.91
2022-08-21T10:27:08.379Z,100494.56
2022-08-21T10:31:28.382Z,100496.94
2022-08-21T10:35:34.952Z,100495.84
2022-08-21T10:39:41.440Z,100493.16
2022-08-21T10:43:51.427Z,100489.53
2022-08-21T10:48:00.496Z,100482.19
2022-08-21T10:52:14.148Z,100474.97
2022-08-21T10:56:20.287Z,100466.97
2022-08-21T11:00:27.767Z,100468.56
2022-08-21T11:04:53.983Z,100467.38
2022-08-21T11:09:00.671Z,100465.53
2022-08-21T11:13:08.192Z,100455.00
2022-08-21T11:17:21.789Z,100449.50
2022-08-21T11:21:38.367Z,100444.84
2022-08-21T11:25:48.077Z,100443.75
2022-08-21T11:29:54.627Z,100441.75
2022-08-21T11:34:37.264Z,100443.25
2022-08-21T11:38:45.619Z,100436.19
2022-08-21T11:43:11.833Z,100433.41
2022-08-21T11:47:40.121Z,100426.19
2022-08-21T11:52:14.769Z,100417.16
2022-08-21T11:56:22.486Z,100420.44
2022-08-21T12:00:30.644Z,100410.53
2022-08-21T12:04:35.975Z,100411.16
2022-08-21T12:08:41.848Z,100395.97
2022-08-21T12:12:46.039Z,100405.13
2022-08-21T12:16:50.627Z,100394.28
2022-08-21T12:21:00.111Z,100407.16
2022-08-21T12:25:09.331Z,100391.94
2022-08-21T12:29:38.196Z,100400.19
2022-08-21T12:33:41.916Z,100396.25
2022-08-21T12:37:50.896Z,100395.94
2022-08-21T12:42:01.943Z,100384.88
2022-08-21T12:46:05.428Z,100384.31
2022-08-21T12:50:12.884Z,100382.72
2022-08-21T12:54:37.668Z,100380.44
2022-08-21T12:58:45.661Z,100372.03
2022-08-21T13:02:50.626Z,100370.59
2022-08-21T13:06:55.430Z,100361.41
2022-08-21T13:11:13.798Z,100373.00
2022-08-21T13:15:26.565Z,100361.75
2022-08-21T13:19:35.465Z,100354.78
2022-08-21T13:23:37.091Z,100355.84
2022-08-21T13:27:39.646Z,100352.59
2022-08-21T13:31:43.351Z,100343.59
2022-08-21T13:36:05.783Z,100344.16
2022-08-21T13:40:11.215Z,100339.00
2022-08-21T13:44:35.232Z,100340.75
2022-08-21T13:48:37.537Z,100338.41
2022-08-21T13:52:48.790Z,100329.78
2022-08-21T13:56:51.127Z,100323.19
2022-08-21T14:00:54.381Z,100320.13
2022-08-21T14:04:59.846Z,100331.06
2022-08-21T14:09:13.876Z,100317.75
2022-08-21T14:13:35.133Z,100324.00
2022-08-21T14:17:42.472Z,100303.97
2022-08-21T14:21:44.760Z,100299.72
2022-08-21T14:25:46.846Z,100297.66
2022-08-21T14:29:48.446Z,100287.03
2022-08-21T14:33:51.031Z,100288.94
2022-08-21T14:37:54.974Z,100285.47
2022-08-21T14:41:58.690Z,100276.91
2022-08-21T14:46:01.523Z,100267.75
2022-08-21T14:50:03.873Z,100265.03
2022-08-21T14:54:06.893Z,100255.91
2022-08-21T14:58:08.506Z,100272.63
2022-08-21T15:02:10.544Z,100259.13
2022-08-21T15:06:12.175Z,100263.22
2022-08-21T15:10:13.926Z,100255.78
2022-08-21T15:14:24.171Z,100260.41
2022-08-21T15:18:27.821Z,100254.25
2022-08-21T15:22:29.458Z,100258.78
2022-08-21T15:26:31.247Z,100256.56
2022-08-21T15:30:33.162Z,100263.34
2022-08-21T15:34:34.816Z,100254.22
2022-08-21T15:38:36.502Z,100245.69
2022-08-21T15:42:40.834Z,100249.19
2022-08-21T15:46:42.910Z,100255.06
2022-08-21T15:50:44.727Z,100241.25
2022-08-21T15:54:46.424Z,100233.50
2022-08-21T15:58:48.739Z,100224.91
2022-08-21T16:02:56.656Z,100229.47
2022-08-21T16:07:04.351Z,100231.97
2022-08-21T16:11:09.325Z,100234.94
2022-08-21T16:15:16.509Z,100234.16
2022-08-21T16:19:22.182Z,100232.91
2022-08-21T16:23:23.787Z,100226.28
2022-08-21T16:27:27.323Z,100222.00
2022-08-21T16:31:29.454Z,100219.59
2022-08-21T16:35:31.436Z,100222.34
2022-08-21T16:39:33.216Z,100217.94
2022-08-21T16:43:35.193Z,100215.69
2022-08-21T16:47:36.765Z,100206.75
2022-08-21T16:51:38.648Z,100204.72
2022-08-21T16:55:40.640Z,100212.81
2022-08-21T16:59:42.850Z,100200.09
2022-08-21T17:03:51.181Z,100200.50
2022-08-21T17:07:52.971Z,100198.16
2022-08-21T17:11:54.544Z,100203.34
2022-08-21T17:15:56.163Z,100206.00
2022-08-21T17:19:57.736Z,100201.91
2022-08-21T17:23:59.322Z,100203.03
2022-08-21T17:28:01.153Z,100205.59
2022-08-21T17:32:05.010Z,100206.53
2022-08-21T17:36:08.128Z,100198.72
2022-08-21T17:40:14.147Z,100197.66
2022-08-21T17:44:18.838Z,100203.66
2022-08-21T17:48:20.435Z,100202.50
2022-08-21T17:52:27.013Z,100201.31
2022-08-21T17:56:32.297Z,100194.94
2022-08-21T18:00:34.516Z,100211.22
2022-08-21T18:04:36.110Z,100205.59
2022-08-21T18:08:37.696Z,100211.38
2022-08-21T18:12:41.174Z,100208.47
2022-08-21T18:16:42.892Z,100214.16
2022-08-21T18:20:44.584Z,100218.22
2022-08-21T18:24:46.274Z,100210.09
2022-08-21T18:28:48.213Z,100213.16
2022-08-21T18:32:52.208Z,100220.50
2022-08-21T18:36:55.181Z,100229.59
2022-08-21T18:40:57.419Z,100235.88
2022-08-21T18:45:02.115Z,100237.88
2022-08-21T18:49:03.771Z,100225.78
2022-08-21T18:53:13.127Z,100238.19
2022-08-21T18:57:30.262Z,100245.41
2022-08-21T19:01:33.219Z,100247.31
2022-08-21T19:05:34.827Z,100255.38
2022-08-21T19:09:38.005Z,100260.00
2022-08-21T19:13:39.664Z,100248.94
2022-08-21T19:17:42.105Z,100255.31
2022-08-21T19:21:44.613Z,100252.09
2022-08-21T19:25:51.749Z,100249.84
2022-08-21T19:29:53.577Z,100251.81
2022-08-21T19:34:01.938Z,100265.94
2022-08-21T19:38:03.573Z,100267.06
2022-08-21T19:42:08.087Z,100272.50
2022-08-21T19:46:15.493Z,100262.13
2022-08-21T19:50:21.253Z,100263.06
2022-08-21T19:54:29.982Z,100257.94
2022-08-21T19:58:38.912Z,100265.13
2022-08-21T20:02:48.231Z,100271.50
2022-08-21T20:07:00.956Z,100266.41
2022-08-21T20:15:25.256Z,100266.09
2022-08-21T20:19:26.898Z,100270.63
2022-08-21T20:23:34.224Z,100268.13
2022-08-21T20:27:40.305Z,100264.75
2022-08-21T20:31:42.652Z,100262.22
2022-08-21T20:35:48.430Z,100256.25
2022-08-21T20:39:50.050Z,100256.34
2022-08-21T20:43:51.941Z,100263.41
2022-08-21T20:48:11.374Z,100267.94
2022-08-21T20:52:15.822Z,100269.81
2022-08-21T20:56:55.675Z,100269.91
2022-08-21T21:01:03.095Z,100274.31
2022-08-21T21:05:22.544Z,100277.84
2022-08-21T21:09:41.957Z,100278.81
2022-08-21T21:13:49.165Z,100278.19
2022-08-21T21:18:01.132Z,100281.94
2022-08-21T21:22:41.759Z,100289.22
2022-08-21T21:26:48.707Z,100287.72
2022-08-21T21:30:51.933Z,100293.91
2022-08-21T21:35:00.269Z,100297.34
2022-08-21T21:39:26.939Z,100302.56
2022-08-21T21:44:05.308Z,100293.94
2022-08-21T21:48:21.253Z,100300.97
2022-08-21T21:52:54.667Z,100296.78
2022-08-21T21:57:21.529Z,100303.22
2022-08-21T22:01:43.644Z,100296.47
2022-08-21T22:06:23.054Z,100288.66
2022-08-21T22:10:34.024Z,100299.03
2022-08-21T22:14:46.648Z,100303.41
2022-08-21T22:18:55.063Z,100300.84
2022-08-21T22:22:57.968Z,100298.25
2022-08-21T22:27:06.597Z,100302.63
2022-08-21T22:31:24.478Z,100303.56
2022-08-21T22:35:33.252Z,100294.09
2022-08-21T22:39:39.453Z,100300.22
2022-08-21T22:44:03.642Z,100301.13
2022-08-21T22:48:22.410Z,100304.78
2022-08-21T22:52:48.491Z,100325.72
2022-08-21T22:57:02.857Z,100336.31
2022-08-21T23:01:23.467Z,100330.34
2022-08-21T23:05:34.452Z,100334.00
2022-08-21T23:09:47.574Z,100338.44
2022-08-21T23:13:53.587Z,100333.47
2022-08-21T23:18:03.125Z,100327.38
2022-08-21T23:22:28.388Z,100335.09
2022-08-21T23:26:46.731Z,100331.56
2022-08-21T23:31:09.919Z,100342.00
2022-08-21T23:35:48.275Z,100335.03
2022-08-21T23:40:21.373Z,100335.84
2022-08-21T23:44:57.203Z,100337.63
2022-08-21T23:49:37.676Z,100337.63
2022-08-21T23:53:55.680Z,100334.13
2022-08-21T23:58:28.101Z,100333.22
